createdAt,value
2022-10-29T00:01:01.347Z,101075.56
2022-10-29T00:03:28.330Z,101088.31
2022-10-29T00:06:11.663Z,101079.78
2022-10-29T00:08:41.585Z,101084.88
2022-10-29T00:11:18.492Z,101089.41
2022-10-29T00:14:50.655Z,101099.41
2022-10-29T00:17:26.624Z,101097.56
2022-10-29T00:19:53.686Z,101100.53
2022-10-29T00:25:39.720Z,101101.91
2022-10-29T00:28:08.687Z,101106.88
2022-10-29T00:30:36.137Z,101096.13
2022-10-29T00:33:05.702Z,101099.53
2022-10-29T00:35:42.092Z,101109.31
2022-10-29T00:38:27.692Z,101112.50
2022-10-29T00:40:57.765Z,101111.41
2022-10-29T00:43:30.114Z,101129.72
2022-10-29T00:46:14.419Z,101142.31
2022-10-29T00:50:10.966Z,101145.22
2022-10-29T00:55:15.927Z,101140.72
2022-10-29T00:57:55.710Z,101137.91
2022-10-29T01:00:44.095Z,101134.97
2022-10-29T01:06:32.675Z,101124.25
2022-10-29T01:10:00.978Z,101137.91
2022-10-29T01:17:18.032Z,101133.41
2022-10-29T01:23:01.112Z,101147.81
2022-10-29T01:26:05.907Z,101141.00
2022-10-29T01:28:54.011Z,101134.53
2022-10-29T01:31:59.585Z,101123.22
2022-10-29T01:34:36.113Z,101121.38
2022-10-29T01:37:10.472Z,101136.25
2022-10-29T01:39:50.489Z,101136.50
2022-10-29T01:42:21.842Z,101142.22
2022-10-29T01:45:12.730Z,101139.06
2022-10-29T01:47:42.212Z,101151.53
2022-10-29T01:50:40.227Z,101135.81
2022-10-29T01:53:07.624Z,101146.28
2022-10-29T01:55:37.470Z,101153.63
2022-10-29T01:58:05.477Z,101157.75
2022-10-29T02:01:00.662Z,101157.88
2022-10-29T02:03:36.780Z,101153.00
2022-10-29T02:06:07.551Z,101158.00
2022-10-29T02:08:41.930Z,101171.44
2022-10-29T02:11:18.188Z,101166.53
2022-10-29T02:13:52.109Z,101164.69
2022-10-29T02:16:41.684Z,101166.41
2022-10-29T02:19:10.724Z,101165.69
2022-10-29T02:21:45.406Z,101163.13
2022-10-29T02:24:12.906Z,101164.84
2022-10-29T02:26:39.712Z,101169.22
2022-10-29T02:29:06.699Z,101168.75
2022-10-29T02:34:25.317Z,101175.44
2022-10-29T02:38:16.692Z,101178.25
2022-10-29T02:40:23.677Z,101179.94
2022-10-29T02:43:03.786Z,101182.88
2022-10-29T02:48:27.934Z,101184.09
2022-10-29T02:50:55.122Z,101189.34
2022-10-29T02:53:22.341Z,101192.00
2022-10-29T02:55:49.146Z,101189.34
2022-10-29T02:58:15.850Z,101190.78
2022-10-29T03:00:42.525Z,101188.94
2022-10-29T03:03:11.402Z,101190.44
2022-10-29T03:05:38.129Z,101193.47
2022-10-29T03:08:05.100Z,101193.72
2022-10-29T03:10:38.389Z,101193.72
2022-10-29T03:13:07.768Z,101189.66
2022-10-29T03:15:34.430Z,101196.63
2022-10-29T03:18:01.092Z,101203.31
2022-10-29T03:20:30.137Z,101188.47
2022-10-29T03:22:59.445Z,101188.47
2022-10-29T03:25:31.501Z,101188.13
2022-10-29T03:27:58.817Z,101189.66
2022-10-29T03:30:25.727Z,101186.91
2022-10-29T03:32:52.858Z,101185.44
2022-10-29T03:35:19.725Z,101197.13
2022-10-29T03:37:49.683Z,101194.44
2022-10-29T03:40:16.461Z,101190.03
2022-10-29T03:42:43.092Z,101194.44
2022-10-29T03:45:10.757Z,101193.56
2022-10-29T03:47:37.940Z,101194.78
2022-10-29T03:50:05.137Z,101192.09
2022-10-29T03:52:31.877Z,101200.41
2022-10-29T03:54:58.671Z,101192.81
2022-10-29T03:57:25.477Z,101200.31
2022-10-29T03:59:52.780Z,101208.69
2022-10-29T04:02:21.147Z,101205.63
2022-10-29T04:04:50.942Z,101211.13
2022-10-29T04:07:26.680Z,101213.03
2022-10-29T04:10:01.115Z,101204.78
2022-10-29T04:12:52.764Z,101198.19
2022-10-29T04:15:22.993Z,101204.72
2022-10-29T04:18:10.490Z,101214.59
2022-10-29T04:21:29.289Z,101211.69
2022-10-29T04:28:58.592Z,101223.72
2022-10-29T04:31:25.399Z,101222.97
2022-10-29T04:33:55.271Z,101217.50
2022-10-29T04:36:21.976Z,101210.31
2022-10-29T04:38:50.410Z,101209.56
2022-10-29T04:41:17.148Z,101210.44
2022-10-29T04:43:43.858Z,101210.06
2022-10-29T04:46:11.294Z,101207.13
2022-10-29T04:48:38.220Z,101203.94
2022-10-29T04:51:05.518Z,101208.81
2022-10-29T04:53:32.248Z,101212.22
2022-10-29T04:56:05.705Z,101214.03
2022-10-29T04:58:32.495Z,101205.91
2022-10-29T05:01:06.294Z,101212.75
2022-10-29T05:03:33.589Z,101206.00
2022-10-29T05:06:04.059Z,101217.47
2022-10-29T05:08:30.861Z,101225.13
2022-10-29T05:10:57.669Z,101229.59
2022-10-29T05:13:24.350Z,101229.28
2022-10-29T05:15:54.838Z,101225.75
2022-10-29T05:18:21.663Z,101219.63
2022-10-29T05:20:55.553Z,101216.31
2022-10-29T05:23:22.429Z,101224.16
2022-10-29T05:25:51.405Z,101223.41
2022-10-29T05:28:20.178Z,101225.00
2022-10-29T05:30:48.589Z,101221.47
2022-10-29T05:33:17.398Z,101215.13
2022-10-29T05:35:44.608Z,101208.09
2022-10-29T05:38:12.694Z,101211.47
2022-10-29T05:40:39.942Z,101219.75
2022-10-29T05:43:06.640Z,101231.44
2022-10-29T05:45:33.514Z,101217.31
2022-10-29T05:48:01.904Z,101224.25
2022-10-29T05:50:29.785Z,101230.34
2022-10-29T05:53:01.228Z,101217.91
2022-10-29T05:55:29.135Z,101219.88
2022-10-29T05:57:57.339Z,101228.25
2022-10-29T06:00:25.079Z,101222.38
2022-10-29T06:02:51.905Z,101216.91
2022-10-29T06:05:18.761Z,101225.94
2022-10-29T06:07:45.520Z,101228.72
2022-10-29T06:10:12.331Z,101228.94
2022-10-29T06:12:38.993Z,101249.28
2022-10-29T06:15:06.317Z,101236.00
2022-10-29T06:17:35.408Z,101233.66
2022-10-29T06:20:02.108Z,101240.84
2022-10-29T06:22:36.133Z,101249.84
2022-10-29T06:26:03.598Z,101245.28
2022-10-29T06:32:41.909Z,101268.25
2022-10-29T06:35:11.052Z,101259.47
2022-10-29T06:37:38.262Z,101264.47
2022-10-29T06:40:05.517Z,101258.16
2022-10-29T06:42:32.159Z,101249.81
2022-10-29T06:44:58.867Z,101264.44
2022-10-29T06:47:25.628Z,101270.75
2022-10-29T06:49:52.335Z,101283.31
2022-10-29T06:52:19.039Z,101280.63
2022-10-29T06:54:45.772Z,101271.50
2022-10-29T06:57:12.553Z,101274.94
2022-10-29T06:59:39.225Z,101278.47
2022-10-29T07:02:05.936Z,101287.03
2022-10-29T07:04:32.618Z,101278.88
2022-10-29T07:06:59.381Z,101257.44
2022-10-29T07:09:29.019Z,101251.84
2022-10-29T07:11:55.769Z,101259.31
2022-10-29T07:14:22.465Z,101265.19
2022-10-29T07:16:49.221Z,101264.03
2022-10-29T07:19:15.918Z,101272.06
2022-10-29T07:21:43.122Z,101267.09
2022-10-29T07:24:10.062Z,101278.94
2022-10-29T07:26:37.147Z,101291.56
2022-10-29T07:29:04.109Z,101292.94
2022-10-29T07:31:31.270Z,101293.69
2022-10-29T07:33:58.104Z,101304.91
2022-10-29T07:36:24.845Z,101298.69
2022-10-29T07:38:51.611Z,101297.84
2022-10-29T07:41:18.375Z,101301.44
2022-10-29T07:43:45.111Z,101302.16
2022-10-29T07:46:11.800Z,101312.69
2022-10-29T07:48:38.952Z,101314.16
2022-10-29T07:51:05.887Z,101309.03
2022-10-29T07:53:32.935Z,101326.38
2022-10-29T07:55:59.923Z,101308.31
2022-10-29T07:58:29.325Z,101316.50
2022-10-29T08:00:59.808Z,101305.88
2022-10-29T08:03:26.585Z,101312.00
2022-10-29T08:05:57.060Z,101312.50
2022-10-29T08:08:24.636Z,101312.91
2022-10-29T08:10:51.391Z,101315.22
2022-10-29T08:13:18.088Z,101313.66
2022-10-29T08:15:46.922Z,101316.09
2022-10-29T08:18:17.922Z,101318.19
2022-10-29T08:20:45.359Z,101310.16
2022-10-29T08:23:13.385Z,101311.00
2022-10-29T08:25:43.150Z,101306.38
2022-10-29T08:28:12.141Z,101313.09
2022-10-29T08:30:39.333Z,101309.44
2022-10-29T08:33:06.176Z,101312.88
2022-10-29T08:35:33.422Z,101320.16
2022-10-29T08:38:00.270Z,101328.13
2022-10-29T08:41:07.171Z,101329.34
2022-10-29T08:43:48.993Z,101332.88
2022-10-29T08:46:19.872Z,101335.44
2022-10-29T08:48:52.222Z,101329.72
2022-10-29T08:51:34.590Z,101333.38
2022-10-29T08:54:29.322Z,101325.56
2022-10-29T08:59:44.175Z,101327.19
2022-10-29T09:02:16.212Z,101323.13
2022-10-29T09:04:43.030Z,101327.91
2022-10-29T09:07:34.714Z,101331.41
2022-10-29T09:10:29.299Z,101325.84
2022-10-29T09:13:08.422Z,101332.78
2022-10-29T09:15:54.786Z,101345.84
2022-10-29T09:18:30.374Z,101358.28
2022-10-29T09:21:06.707Z,101349.75
2022-10-29T09:23:47.819Z,101359.06
2022-10-29T09:26:31.191Z,101352.09
2022-10-29T09:29:24.645Z,101351.88
2022-10-29T09:32:06.296Z,101342.19
2022-10-29T09:34:41.882Z,101352.72
2022-10-29T09:37:56.213Z,101346.38
2022-10-29T09:40:34.899Z,101334.38
2022-10-29T09:43:07.877Z,101328.78
2022-10-29T09:46:01.923Z,101328.78
2022-10-29T09:49:16.474Z,101323.28
2022-10-29T09:52:07.044Z,101320.22
2022-10-29T09:54:56.725Z,101318.53
2022-10-29T09:57:25.474Z,101318.25
2022-10-29T10:00:00.993Z,101312.50
2022-10-29T10:02:38.318Z,101314.56
2022-10-29T10:05:10.360Z,101304.69
2022-10-29T10:07:37.259Z,101299.38
2022-10-29T10:10:06.493Z,101313.16
2022-10-29T10:12:39.277Z,101306.81
2022-10-29T10:15:17.080Z,101304.28
2022-10-29T10:17:55.918Z,101316.69
2022-10-29T10:20:31.076Z,101319.63
2022-10-29T10:22:58.342Z,101319.72
2022-10-29T10:25:34.469Z,101306.34
2022-10-29T10:28:22.336Z,101310.59
2022-10-29T10:31:04.344Z,101310.38
2022-10-29T10:33:32.698Z,101309.50
2022-10-29T10:36:05.607Z,101302.66
2022-10-29T10:38:46.457Z,101290.19
2022-10-29T10:41:14.067Z,101299.31
2022-10-29T10:43:45.388Z,101285.78
2022-10-29T10:46:16.774Z,101298.78
2022-10-29T10:48:43.583Z,101290.97
2022-10-29T10:51:31.841Z,101283.03
2022-10-29T10:53:59.926Z,101293.28
2022-10-29T10:56:26.692Z,101282.75
2022-10-29T10:59:03.136Z,101295.78
2022-10-29T11:01:36.504Z,101295.53
2022-10-29T11:04:25.578Z,101299.69
2022-10-29T11:06:53.790Z,101297.28
2022-10-29T11:09:35.968Z,101293.00
2022-10-29T11:12:24.415Z,101288.97
2022-10-29T11:14:54.383Z,101281.28
2022-10-29T11:17:54.455Z,101271.94
2022-10-29T11:20:23.306Z,101267.53
2022-10-29T11:23:15.039Z,101265.66
2022-10-29T11:25:45.663Z,101257.72
2022-10-29T11:28:30.641Z,101267.09
2022-10-29T11:31:16.651Z,101270.13
2022-10-29T11:33:51.147Z,101268.44
2022-10-29T11:36:41.759Z,101264.03
2022-10-29T11:39:15.629Z,101257.50
2022-10-29T11:41:50.307Z,101255.06
2022-10-29T11:44:18.206Z,101251.22
2022-10-29T11:47:01.282Z,101254.91
2022-10-29T11:49:40.294Z,101246.13
2022-10-29T11:52:13.286Z,101238.88
2022-10-29T11:55:06.247Z,101243.28
2022-10-29T11:57:37.952Z,101235.28
2022-10-29T12:00:10.303Z,101237.63
2022-10-29T12:02:42.619Z,101231.69
2022-10-29T12:05:30.250Z,101230.13
2022-10-29T12:08:07.767Z,101218.91
2022-10-29T12:11:12.626Z,101209.00
2022-10-29T12:14:00.252Z,101203.19
2022-10-29T12:16:50.154Z,101204.72
2022-10-29T12:19:51.231Z,101213.66
2022-10-29T12:22:23.311Z,101214.09
2022-10-29T12:25:02.550Z,101205.44
2022-10-29T12:27:51.397Z,101212.97
2022-10-29T12:30:19.449Z,101206.44
2022-10-29T12:32:58.935Z,101201.03
2022-10-29T12:35:49.928Z,101206.13
2022-10-29T12:38:41.292Z,101201.75
2022-10-29T12:41:12.884Z,101191.63
2022-10-29T12:43:40.433Z,101189.88
2022-10-29T12:46:28.453Z,101193.81
2022-10-29T12:49:05.467Z,101181.03
2022-10-29T12:51:43.094Z,101173.28
2022-10-29T12:54:28.635Z,101163.22
2022-10-29T12:56:57.405Z,101161.25
2022-10-29T12:59:24.044Z,101156.00
2022-10-29T13:02:12.007Z,101156.59
2022-10-29T13:04:38.332Z,101161.75
2022-10-29T13:07:23.683Z,101174.50
2022-10-29T13:10:22.901Z,101170.53
2022-10-29T13:12:58.851Z,101169.78
2022-10-29T13:15:38.872Z,101169.56
2022-10-29T13:18:20.392Z,101166.16
2022-10-29T13:20:49.302Z,101158.44
2022-10-29T13:23:22.091Z,101161.75
2022-10-29T13:25:58.538Z,101158.03
2022-10-29T13:28:25.175Z,101148.78
2022-10-29T13:31:12.097Z,101151.50
2022-10-29T13:33:38.734Z,101151.31
2022-10-29T13:36:15.373Z,101149.91
2022-10-29T13:39:04.398Z,101153.25
2022-10-29T13:41:44.801Z,101157.19
2022-10-29T13:44:24.558Z,101157.63
2022-10-29T13:47:01.215Z,101154.25
2022-10-29T13:49:37.074Z,101159.66
2022-10-29T13:52:15.101Z,101152.91
2022-10-29T13:55:05.291Z,101149.75
2022-10-29T13:57:37.349Z,101146.13
2022-10-29T14:00:13.082Z,101141.97
2022-10-29T14:02:52.517Z,101146.97
2022-10-29T14:05:58.427Z,101131.59
2022-10-29T14:09:46.817Z,101135.09
2022-10-29T14:12:31.758Z,101136.69
2022-10-29T14:15:11.739Z,101132.94
2022-10-29T14:17:39.995Z,101132.09
2022-10-29T14:20:27.745Z,101122.81
2022-10-29T14:22:54.744Z,101133.03
2022-10-29T14:25:27.196Z,101126.09
2022-10-29T14:28:31.623Z,101121.66
2022-10-29T14:31:06.998Z,101120.56
2022-10-29T14:33:38.643Z,101116.75
2022-10-29T14:36:11.828Z,101126.19
2022-10-29T14:39:04.796Z,101125.38
2022-10-29T14:41:32.227Z,101115.97
2022-10-29T14:44:02.018Z,101116.22
2022-10-29T14:46:30.419Z,101114.69
2022-10-29T14:49:02.073Z,101124.41
2022-10-29T14:51:30.306Z,101125.84
2022-10-29T14:54:00.778Z,101129.31
2022-10-29T14:56:32.074Z,101122.63
2022-10-29T14:58:59.231Z,101135.06
2022-10-29T15:01:25.992Z,101138.50
2022-10-29T15:04:00.715Z,101131.00
2022-10-29T15:06:30.801Z,101125.25
2022-10-29T15:09:03.898Z,101124.69
2022-10-29T15:11:42.534Z,101128.97
2022-10-29T15:14:51.769Z,101124.34
2022-10-29T15:17:32.124Z,101118.38
2022-10-29T15:20:01.898Z,101114.56
2022-10-29T15:22:35.544Z,101121.88
2022-10-29T15:25:05.531Z,101131.97
2022-10-29T15:27:32.528Z,101124.38
2022-10-29T15:30:02.697Z,101118.13
2022-10-29T15:32:31.505Z,101126.53
2022-10-29T15:34:59.735Z,101127.69
2022-10-29T15:37:44.287Z,101122.59
2022-10-29T15:40:24.100Z,101121.63
2022-10-29T15:42:51.165Z,101119.09
2022-10-29T15:45:28.136Z,101115.09
2022-10-29T15:48:10.070Z,101102.91
2022-10-29T15:50:42.195Z,101108.97
2022-10-29T15:53:14.248Z,101125.84
2022-10-29T15:55:40.979Z,101128.25
2022-10-29T15:58:20.146Z,101127.56
2022-10-29T16:00:46.863Z,101125.44
2022-10-29T16:03:17.471Z,101123.44
2022-10-29T16:05:45.730Z,101125.97
2022-10-29T16:08:24.745Z,101129.81
2022-10-29T16:10:51.763Z,101125.13
2022-10-29T16:13:19.222Z,101129.66
2022-10-29T16:15:45.867Z,101129.53
2022-10-29T16:18:12.540Z,101131.09
2022-10-29T16:20:39.208Z,101134.06
2022-10-29T16:23:06.009Z,101125.41
2022-10-29T16:25:32.993Z,101126.09
2022-10-29T16:28:00.137Z,101125.66
2022-10-29T16:30:27.160Z,101134.75
2022-10-29T16:32:54.847Z,101134.03
2022-10-29T16:35:23.947Z,101123.41
2022-10-29T16:37:51.711Z,101136.28
2022-10-29T16:40:19.601Z,101138.84
2022-10-29T16:42:46.748Z,101118.44
2022-10-29T16:45:31.944Z,101129.91
2022-10-29T16:47:59.104Z,101121.84
2022-10-29T16:50:28.781Z,101130.28
2022-10-29T16:53:04.060Z,101124.19
2022-10-29T16:55:30.725Z,101121.34
2022-10-29T16:57:57.831Z,101117.25
2022-10-29T17:00:26.111Z,101116.53
2022-10-29T17:02:52.912Z,101110.16
2022-10-29T17:05:19.593Z,101114.84
2022-10-29T17:07:46.279Z,101118.94
2022-10-29T17:10:12.930Z,101126.56
2022-10-29T17:12:39.655Z,101132.78
2022-10-29T17:15:06.930Z,101126.13
2022-10-29T17:17:33.586Z,101122.75
2022-10-29T17:20:00.322Z,101118.06
2022-10-29T17:22:27.015Z,101127.97
2022-10-29T17:24:53.685Z,101129.38
2022-10-29T17:27:20.488Z,101123.88
2022-10-29T17:29:47.202Z,101122.56
2022-10-29T17:32:14.129Z,101136.28
2022-10-29T17:34:40.793Z,101125.94
2022-10-29T17:37:07.985Z,101125.94
2022-10-29T17:39:34.818Z,101130.84
2022-10-29T17:42:01.543Z,101133.66
2022-10-29T17:44:28.277Z,101132.78
2022-10-29T17:46:55.207Z,101144.41
2022-10-29T17:49:22.256Z,101144.81
2022-10-29T17:51:48.949Z,101146.78
2022-10-29T17:54:16.380Z,101144.94
2022-10-29T17:56:43.587Z,101146.91
2022-10-29T17:59:10.521Z,101138.00
2022-10-29T18:01:37.309Z,101136.28
2022-10-29T18:04:06.950Z,101128.63
2022-10-29T18:06:33.665Z,101120.56
2022-10-29T18:09:01.147Z,101126.94
2022-10-29T18:11:28.163Z,101120.72
2022-10-29T18:13:56.911Z,101127.91
2022-10-29T18:16:30.166Z,101131.16
2022-10-29T18:19:04.768Z,101125.19
2022-10-29T18:21:34.701Z,101120.03
2022-10-29T18:24:01.577Z,101122.88
2022-10-29T18:26:30.887Z,101123.75
2022-10-29T18:28:58.905Z,101120.47
2022-10-29T18:31:29.989Z,101119.19
2022-10-29T18:34:03.262Z,101123.31
2022-10-29T18:36:29.972Z,101112.72
2022-10-29T18:38:57.464Z,101116.13
2022-10-29T18:41:52.901Z,101116.38
2022-10-29T18:44:40.152Z,101120.19
2022-10-29T18:47:09.534Z,101116.25
2022-10-29T18:50:05.658Z,101113.13
2022-10-29T18:55:52.190Z,101113.22
2022-10-29T18:59:06.465Z,101122.03
2022-10-29T19:01:44.830Z,101113.19
2022-10-29T19:04:15.709Z,101105.59
2022-10-29T19:06:45.738Z,101110.81
2022-10-29T19:09:12.584Z,101102.16
2022-10-29T19:11:39.448Z,101100.22
2022-10-29T19:14:09.655Z,101099.34
2022-10-29T19:16:44.109Z,101084.34
2022-10-29T19:19:17.230Z,101095.34
2022-10-29T19:21:56.206Z,101090.94
2022-10-29T19:24:23.029Z,101095.34
2022-10-29T19:26:49.750Z,101078.38
2022-10-29T19:29:16.707Z,101082.31
2022-10-29T19:31:44.892Z,101086.84
2022-10-29T19:34:12.006Z,101089.53
2022-10-29T19:36:40.336Z,101096.16
2022-10-29T19:39:07.649Z,101101.53
2022-10-29T19:41:34.518Z,101098.84
2022-10-29T19:44:02.803Z,101101.06
2022-10-29T19:46:29.800Z,101091.31
2022-10-29T19:48:57.952Z,101105.72
2022-10-29T19:51:24.797Z,101099.25
2022-10-29T19:53:51.736Z,101098.97
2022-10-29T19:56:19.214Z,101101.53
2022-10-29T19:58:46.159Z,101097.84
2022-10-29T20:01:16.341Z,101093.31
2022-10-29T20:03:43.524Z,101104.22
2022-10-29T20:06:10.243Z,101105.06
2022-10-29T20:08:37.378Z,101100.09
2022-10-29T20:11:04.355Z,101105.72
2022-10-29T20:13:34.210Z,101111.09
2022-10-29T20:16:07.787Z,101110.38
2022-10-29T20:18:35.589Z,101107.44
2022-10-29T20:21:02.339Z,101096.56
2022-10-29T20:23:31.915Z,101100.81
2022-10-29T20:25:58.600Z,101097.13
2022-10-29T20:28:25.440Z,101097.53
2022-10-29T20:31:16.623Z,101090.13
2022-10-29T20:33:51.323Z,101084.75
2022-10-29T20:36:18.267Z,101087.44
2022-10-29T20:38:48.497Z,101083.78
2022-10-29T20:41:15.534Z,101092.09
2022-10-29T20:43:42.196Z,101096.28
2022-10-29T20:46:08.855Z,101103.38
2022-10-29T20:48:38.599Z,101110.31
2022-10-29T20:51:08.131Z,101099.94
2022-10-29T20:53:34.875Z,101103.50
2022-10-29T20:56:10.288Z,101111.41
2022-10-29T20:58:39.954Z,101108.72
2022-10-29T21:01:08.197Z,101105.31
2022-10-29T21:03:35.392Z,101107.16
2022-10-29T21:06:06.360Z,101104.75
2022-10-29T21:08:33.434Z,101099.59
2022-10-29T21:11:01.804Z,101102.56
2022-10-29T21:13:29.129Z,101100.84
2022-10-29T21:15:56.357Z,101097.19
2022-10-29T21:18:23.077Z,101088.31
2022-10-29T21:20:49.811Z,101092.94
2022-10-29T21:23:19.923Z,101094.78
2022-10-29T21:25:53.962Z,101091.09
2022-10-29T21:28:20.681Z,101085.25
2022-10-29T21:30:47.350Z,101089.50
2022-10-29T21:33:14.009Z,101088.81
2022-10-29T21:35:41.043Z,101080.88
2022-10-29T21:38:07.742Z,101086.50
2022-10-29T21:40:34.431Z,101078.44
2022-10-29T21:43:01.077Z,101086.06
2022-10-29T21:45:27.724Z,101079.94
2022-10-29T21:47:54.559Z,101081.78
2022-10-29T21:50:24.302Z,101078.34
2022-10-29T21:52:51.013Z,101064.06
2022-10-29T21:55:17.668Z,101063.19
2022-10-29T21:57:44.813Z,101065.06
2022-10-29T22:00:13.607Z,101077.59
2022-10-29T22:02:40.265Z,101067.88
2022-10-29T22:05:07.572Z,101073.09
2022-10-29T22:07:34.786Z,101066.88
2022-10-29T22:10:01.832Z,101064.19
2022-10-29T22:12:28.563Z,101070.41
2022-10-29T22:14:55.255Z,101072.38
2022-10-29T22:17:21.958Z,101067.00
2022-10-29T22:19:48.675Z,101068.09
2022-10-29T22:22:15.389Z,101075.44
2022-10-29T22:24:42.024Z,101089.09
2022-10-29T22:27:08.673Z,101088.88
2022-10-29T22:29:35.361Z,101089.00
2022-10-29T22:32:02.106Z,101089.38
2022-10-29T22:34:28.824Z,101084.00
2022-10-29T22:36:55.519Z,101084.00
2022-10-29T22:39:22.260Z,101084.63
2022-10-29T22:41:48.974Z,101075.81
2022-10-29T22:44:15.612Z,101067.63
2022-10-29T22:46:42.298Z,101066.78
2022-10-29T22:49:09.094Z,101059.97
2022-10-29T22:51:35.975Z,101069.00
2022-10-29T22:54:02.874Z,101071.97
2022-10-29T22:56:33.148Z,101070.13
2022-10-29T22:59:00.908Z,101065.72
2022-10-29T23:01:32.379Z,101072.09
2022-10-29T23:03:59.535Z,101065.84
2022-10-29T23:06:26.927Z,101067.56
2022-10-29T23:08:55.663Z,101068.94
2022-10-29T23:11:27.276Z,101063.31
2022-10-29T23:13:55.917Z,101071.22
2022-10-29T23:16:23.826Z,101069.63
2022-10-29T23:18:51.981Z,101074.91
2022-10-29T23:21:19.152Z,101079.66
2022-10-29T23:23:46.395Z,101074.53
2022-10-29T23:26:14.995Z,101071.41
2022-10-29T23:28:42.077Z,101062.88
2022-10-29T23:31:14.475Z,101071.41
2022-10-29T23:33:44.751Z,101067.00
2022-10-29T23:36:12.148Z,101062.88
2022-10-29T23:38:38.895Z,101067.38
2022-10-29T23:41:05.707Z,101080.09
2022-10-29T23:43:32.381Z,101067.78
2022-10-29T23:45:59.033Z,101067.50
2022-10-29T23:48:25.747Z,101074.44
2022-10-29T23:50:52.488Z,101067.38
2022-10-29T23:53:19.786Z,101071.91
2022-10-29T23:55:46.769Z,101069.56
2022-10-29T23:58:13.992Z,101071.56
